Time;durP1;ratioP1;P1;durP2;ratioP2;P2;SDS_P1;SDS_P2;PMS_P1;PMS_P2;Temp;Humidity;BMP_temperature;BMP_pressure;BME280_temperature;BME280_humidity;BME280_pressure;Samples;Min_cycle;Max_cycle;Signal;HPM_P1;HPM_P2
2022/12/14 00:01:59;;;;;;;6.50;3.50;;;1.90;83.60;;;;;;4915168;29;20622;-74
2022/12/14 00:04:27;;;;;;;6.03;4.43;;;1.90;83.60;;;;;;4916539;29;20228;-74
2022/12/14 00:06:57;;;;;;;5.55;4.07;;;1.90;83.50;;;;;;4908473;29;20205;-74
2022/12/14 00:09:25;;;;;;;6.15;3.80;;;1.90;83.60;;;;;;4909209;29;20225;-72
2022/12/14 00:11:53;;;;;;;6.10;3.80;;;1.90;83.60;;;;;;4917270;29;20216;-74
2022/12/14 00:14:22;;;;;;;4.22;3.25;;;1.90;83.60;;;;;;4912481;29;20280;-74
2022/12/14 00:16:50;;;;;;;8.10;3.42;;;1.90;83.60;;;;;;4906559;29;20205;-74
2022/12/14 00:19:18;;;;;;;7.35;3.80;;;1.90;83.50;;;;;;4923814;29;20312;-74
2022/12/14 00:21:47;;;;;;;4.03;3.20;;;1.90;83.50;;;;;;4913321;29;20263;-75
2022/12/14 00:24:17;;;;;;;5.47;3.50;;;1.90;83.60;;;;;;4913823;29;20308;-75
2022/12/14 00:26:46;;;;;;;4.70;3.85;;;1.90;83.60;;;;;;4911127;29;20908;-73
2022/12/14 00:29:14;;;;;;;5.10;3.65;;;1.90;83.60;;;;;;4927428;29;20233;-74
2022/12/14 00:31:42;;;;;;;4.28;3.25;;;1.90;83.60;;;;;;4913104;29;20216;-74
2022/12/14 00:34:16;;;;;;;4.30;3.10;;;1.90;83.60;;;;;;4913596;29;20259;-74
2022/12/14 00:36:45;;;;;;;4.15;3.25;;;1.90;83.60;;;;;;4924376;29;20192;-75
2022/12/14 00:39:13;;;;;;;4.25;3.40;;;1.90;83.60;;;;;;4916601;28;20240;-72
2022/12/14 00:41:43;;;;;;;5.22;3.10;;;1.90;83.50;;;;;;4913259;29;20202;-75
2022/12/14 00:44:11;;;;;;;6.25;2.80;;;1.90;83.60;;;;;;4912463;29;20221;-74
2022/12/14 00:46:39;;;;;;;5.80;3.40;;;1.90;83.50;;;;;;4917240;29;20581;-75
2022/12/14 00:49:08;;;;;;;5.97;4.75;;;1.90;83.40;;;;;;4910276;29;20228;-73
2022/12/14 00:51:36;;;;;;;5.55;3.70;;;1.90;83.10;;;;;;4912090;29;20201;-73
2022/12/14 00:54:05;;;;;;;5.95;4.65;;;1.90;83.20;;;;;;4914865;29;20307;-75
2022/12/14 00:56:33;;;;;;;5.05;3.50;;;1.90;83.00;;;;;;4913744;29;20209;-74
2022/12/14 00:59:03;;;;;;;6.00;3.45;;;1.90;83.30;;;;;;4916255;29;20233;-75
2022/12/14 01:01:31;;;;;;;6.22;3.55;;;1.80;83.10;;;;;;4930042;29;20202;-74
2022/12/14 01:06:42;;;;;;;5.95;3.70;;;1.90;83.30;;;;;;4912432;29;20644;-75
2022/12/14 01:09:11;;;;;;;6.00;4.07;;;1.80;83.20;;;;;;4910965;29;20647;-76
2022/12/14 01:11:39;;;;;;;4.70;3.47;;;1.80;83.00;;;;;;4923580;29;20207;-74
2022/12/14 01:14:09;;;;;;;5.68;3.35;;;1.90;83.40;;;;;;4926231;29;20233;-73
2022/12/14 01:16:38;;;;;;;5.10;3.65;;;1.90;83.10;;;;;;4915041;29;20706;-73
2022/12/14 01:19:07;;;;;;;6.93;4.88;;;1.90;83.30;;;;;;4903797;29;20829;-75
2022/12/14 01:21:35;;;;;;;7.15;4.75;;;1.80;84.20;;;;;;4932631;29;20647;-73
2022/12/14 01:24:05;;;;;;;3.40;2.88;;;1.80;82.70;;;;;;4923660;29;20206;-74
2022/12/14 01:26:37;;;;;;;4.15;3.35;;;1.80;83.00;;;;;;4919001;29;20293;-73
2022/12/14 01:29:07;;;;;;;4.85;3.40;;;1.80;83.20;;;;;;4918234;29;20261;-74
2022/12/14 01:31:37;;;;;;;3.97;2.88;;;1.80;83.00;;;;;;4910186;29;20202;-76
2022/12/14 01:34:07;;;;;;;6.10;4.20;;;1.80;83.10;;;;;;4910716;29;20209;-75
2022/12/14 01:36:36;;;;;;;5.35;3.70;;;1.80;82.60;;;;;;4910029;29;20219;-73
2022/12/14 01:39:09;;;;;;;4.93;4.20;;;1.80;82.90;;;;;;4910886;29;20347;-75
2022/12/14 01:41:39;;;;;;;4.07;3.53;;;1.80;82.70;;;;;;4915215;29;20233;-75
2022/12/14 01:44:40;;;;;;;5.50;3.80;;;1.80;83.00;;;;;;4914525;29;20594;-74
2022/12/14 01:47:17;;;;;;;9.18;4.22;;;1.80;82.40;;;;;;4899579;29;20289;-73
2022/12/14 01:49:50;;;;;;;4.45;3.25;;;1.80;82.10;;;;;;4931105;29;20241;-72
2022/12/14 01:52:25;;;;;;;5.63;4.25;;;1.80;82.60;;;;;;4908074;29;20231;-74
2022/12/14 01:54:58;;;;;;;4.38;3.53;;;1.80;83.10;;;;;;4914917;29;20220;-74
2022/12/14 01:57:32;;;;;;;5.95;3.55;;;1.80;83.00;;;;;;4933576;29;20225;-74
2022/12/14 02:00:01;;;;;;;6.50;3.50;;;1.80;83.10;;;;;;4909759;29;20277;-74
2022/12/14 02:02:38;;;;;;;5.40;3.30;;;1.80;83.00;;;;;;4911945;29;20724;-74
2022/12/14 02:05:09;;;;;;;4.95;3.90;;;1.80;82.80;;;;;;4909185;29;20219;-74
2022/12/14 02:07:39;;;;;;;3.80;3.40;;;1.80;82.70;;;;;;4920885;29;20328;-72
2022/12/14 02:10:09;;;;;;;4.28;3.20;;;1.80;82.80;;;;;;4915641;28;20260;-74
2022/12/14 02:12:41;;;;;;;6.93;3.75;;;1.80;83.10;;;;;;4939512;29;20611;-73
2022/12/14 02:15:12;;;;;;;6.05;4.63;;;1.80;82.90;;;;;;4920519;28;20342;-74
2022/12/14 02:17:43;;;;;;;7.45;3.80;;;1.80;82.30;;;;;;4916312;29;20704;-74
2022/12/14 02:20:14;;;;;;;5.38;3.75;;;1.80;83.00;;;;;;4912507;28;20308;-74
2022/12/14 02:23:19;;;;;;;6.15;3.30;;;1.80;82.70;;;;;;4916121;29;20205;-75
2022/12/14 02:26:23;;;;;;;5.03;3.60;;;1.80;82.70;;;;;;4908192;29;20225;-73
2022/12/14 02:29:34;;;;;;;7.53;3.17;;;1.80;82.90;;;;;;4881957;29;20221;-73
2022/12/14 02:32:30;;;;;;;5.10;3.47;;;1.80;82.70;;;;;;4911469;29;20201;-75
2022/12/14 02:35:01;;;;;;;5.90;3.10;;;1.80;82.90;;;;;;4901525;29;20637;-74
2022/12/14 02:37:38;;;;;;;4.50;3.13;;;1.80;82.90;;;;;;4916333;29;20709;-72
2022/12/14 02:40:18;;;;;;;7.03;3.95;;;1.80;82.90;;;;;;4910933;29;20238;-74
2022/12/14 02:42:56;;;;;;;7.70;3.60;;;1.80;82.60;;;;;;4925488;29;20590;-75
2022/12/14 02:45:33;;;;;;;5.85;3.50;;;1.80;82.70;;;;;;4915417;29;20329;-73
2022/12/14 02:48:07;;;;;;;6.85;4.03;;;1.80;82.90;;;;;;4913449;29;20223;-75
2022/12/14 02:50:43;;;;;;;5.22;3.25;;;1.80;82.90;;;;;;4932687;29;20199;-74
2022/12/14 02:53:20;;;;;;;4.65;3.03;;;1.80;82.70;;;;;;4925105;29;20306;-73
2022/12/14 02:55:51;;;;;;;6.95;3.90;;;1.80;82.90;;;;;;4918448;29;20220;-73
2022/12/14 02:58:24;;;;;;;5.85;4.28;;;1.80;83.00;;;;;;4908832;29;20273;-75
2022/12/14 03:00:54;;;;;;;4.72;3.55;;;1.80;82.50;;;;;;4913067;29;20204;-75
2022/12/14 03:03:24;;;;;;;7.20;4.15;;;1.80;82.10;;;;;;4918808;29;20875;-75
2022/12/14 03:05:58;;;;;;;5.30;3.70;;;1.80;82.60;;;;;;4920507;29;20236;-73
2022/12/14 03:08:29;;;;;;;5.90;3.95;;;1.70;82.10;;;;;;4909914;29;20312;-72
2022/12/14 03:11:01;;;;;;;5.90;2.90;;;1.80;82.60;;;;;;4909306;29;20603;-73
2022/12/14 03:13:33;;;;;;;5.20;3.10;;;1.70;82.60;;;;;;4918216;29;20229;-75
2022/12/14 03:16:08;;;;;;;5.45;3.38;;;1.70;82.60;;;;;;4909342;29;20236;-73
2022/12/14 03:18:41;;;;;;;6.78;4.22;;;1.80;82.90;;;;;;4911317;29;20571;-72
2022/12/14 03:21:13;;;;;;;3.75;3.45;;;1.70;82.80;;;;;;4927598;29;20446;-72
2022/12/14 03:23:47;;;;;;;4.90;3.13;;;1.70;82.60;;;;;;4902991;29;20621;-73
2022/12/14 03:26:21;;;;;;;5.60;3.50;;;1.70;82.70;;;;;;4917287;29;20296;-74
2022/12/14 03:28:54;;;;;;;4.40;2.80;;;1.70;82.70;;;;;;4916377;29;20221;-74
2022/12/14 03:31:30;;;;;;;4.38;2.85;;;1.70;82.70;;;;;;4918409;29;20221;-73
2022/12/14 03:34:03;;;;;;;3.88;2.90;;;1.70;82.70;;;;;;4917217;29;20204;-74
2022/12/14 03:36:40;;;;;;;5.30;3.22;;;1.70;82.80;;;;;;4908364;29;20316;-73
2022/12/14 03:39:13;;;;;;;4.82;2.63;;;1.70;82.70;;;;;;4908584;29;20304;-75
2022/12/14 03:41:51;;;;;;;3.72;2.75;;;1.70;82.80;;;;;;4903070;29;20614;-74
2022/12/14 03:44:32;;;;;;;4.72;3.72;;;1.70;82.80;;;;;;4918381;28;20284;-74
2022/12/14 03:47:10;;;;;;;4.22;2.60;;;1.80;83.00;;;;;;4911277;29;20297;-73
2022/12/14 03:49:50;;;;;;;5.57;3.38;;;1.70;82.90;;;;;;4924329;28;20253;-74
2022/12/14 03:52:25;;;;;;;3.85;3.17;;;1.70;82.90;;;;;;4923121;29;20197;-73
2022/12/14 03:55:04;;;;;;;4.38;3.58;;;1.70;83.80;;;;;;4893225;29;20734;-75
2022/12/14 03:57:52;;;;;;;5.57;3.90;;;1.70;82.70;;;;;;4911063;29;20225;-74
2022/12/14 04:00:23;;;;;;;5.38;3.00;;;1.70;82.70;;;;;;4911227;29;20768;-73
2022/12/14 04:02:59;;;;;;;4.65;3.80;;;1.80;82.80;;;;;;4927332;29;20205;-73
2022/12/14 04:05:35;;;;;;;3.85;3.13;;;1.80;82.90;;;;;;4911456;29;20260;-74
2022/12/14 04:08:09;;;;;;;3.92;2.78;;;1.70;82.80;;;;;;4908470;29;20232;-74
2022/12/14 04:19:16;;;;;;;2.83;2.13;;;1.80;83.00;;;;;;4918324;29;20236;-74
2022/12/14 04:21:51;;;;;;;4.93;3.45;;;1.70;82.80;;;;;;4916593;29;20217;-75
2022/12/14 04:27:21;;;;;;;4.47;2.92;;;1.70;82.90;;;;;;4909205;29;20797;-75
2022/12/14 04:29:59;;;;;;;6.30;3.58;;;1.70;82.90;;;;;;4916765;28;20229;-73
2022/12/14 04:32:32;;;;;;;2.90;2.17;;;1.70;82.90;;;;;;4927473;29;20322;-74
2022/12/14 04:35:08;;;;;;;3.95;3.00;;;1.70;82.90;;;;;;4916022;28;20256;-73
2022/12/14 04:37:40;;;;;;;3.97;2.97;;;1.70;82.90;;;;;;4913360;29;20259;-75
2022/12/14 04:40:14;;;;;;;3.63;3.22;;;1.70;82.90;;;;;;4912325;29;20245;-73
2022/12/14 04:42:47;;;;;;;3.80;2.17;;;1.70;83.00;;;;;;4905409;29;20232;-72
2022/12/14 04:45:19;;;;;;;3.55;2.55;;;1.70;82.90;;;;;;4906129;29;20232;-74
2022/12/14 04:47:56;;;;;;;3.78;2.92;;;1.70;82.90;;;;;;4915219;29;20219;-73
2022/12/14 04:50:29;;;;;;;5.00;3.40;;;1.70;82.90;;;;;;4912329;29;20733;-75
2022/12/14 04:53:04;;;;;;;4.30;3.15;;;1.70;82.90;;;;;;4906872;29;20201;-73
2022/12/14 04:55:40;;;;;;;3.95;3.22;;;1.70;83.00;;;;;;4914451;29;20255;-73
2022/12/14 04:58:13;;;;;;;4.00;2.42;;;1.70;82.90;;;;;;4910666;29;20296;-74
2022/12/14 05:00:56;;;;;;;3.67;3.38;;;1.70;82.90;;;;;;4935819;29;20588;-74
2022/12/14 05:03:29;;;;;;;3.40;2.72;;;1.70;83.00;;;;;;4908161;29;20225;-73
2022/12/14 05:06:07;;;;;;;4.85;3.15;;;1.70;82.90;;;;;;4920126;29;20227;-74
2022/12/14 05:09:09;;;;;;;4.25;3.00;;;1.70;82.90;;;;;;4914353;29;20589;-74
2022/12/14 05:11:42;;;;;;;3.50;3.08;;;1.70;83.00;;;;;;4914136;29;20197;-74
2022/12/14 05:14:26;;;;;;;4.43;2.70;;;1.70;83.00;;;;;;4916310;29;20225;-75
2022/12/14 05:16:55;;;;;;;3.17;2.70;;;1.70;83.00;;;;;;4923793;29;20263;-72
2022/12/14 05:19:25;;;;;;;3.67;2.47;;;1.70;83.00;;;;;;4914327;29;20801;-74
2022/12/14 05:21:54;;;;;;;4.25;3.03;;;1.70;83.00;;;;;;4913031;29;20301;-75
2022/12/14 05:24:24;;;;;;;5.60;3.20;;;1.70;82.90;;;;;;4925539;28;20279;-76
2022/12/14 05:26:52;;;;;;;3.67;2.35;;;1.70;82.90;;;;;;4911585;29;20292;-75
2022/12/14 05:29:21;;;;;;;5.05;3.03;;;1.70;82.90;;;;;;4927694;28;20225;-72
2022/12/14 05:31:50;;;;;;;4.93;3.28;;;1.70;83.00;;;;;;4913791;29;20612;-74
2022/12/14 05:34:19;;;;;;;4.28;2.78;;;1.70;83.10;;;;;;4910640;29;20228;-73
2022/12/14 05:36:47;;;;;;;4.88;2.58;;;1.70;83.00;;;;;;4910413;29;20280;-74
2022/12/14 05:39:16;;;;;;;3.92;2.60;;;1.70;83.00;;;;;;4939456;29;20316;-74
2022/12/14 05:41:46;;;;;;;4.38;3.30;;;1.70;83.00;;;;;;4915020;29;20240;-74
2022/12/14 05:44:14;;;;;;;3.97;2.60;;;1.70;83.00;;;;;;4909875;29;20291;-73
2022/12/14 05:46:42;;;;;;;5.30;2.80;;;1.70;83.00;;;;;;4913967;29;20617;-75
2022/12/14 05:49:11;;;;;;;4.57;2.92;;;1.70;83.00;;;;;;4915244;29;20252;-74
2022/12/14 05:51:39;;;;;;;5.25;3.10;;;1.70;83.00;;;;;;4903081;29;20202;-73
2022/12/14 05:54:08;;;;;;;2.92;2.45;;;1.70;83.00;;;;;;4909300;29;20754;-75
2022/12/14 05:56:36;;;;;;;3.72;2.78;;;1.70;83.10;;;;;;4910211;29;20190;-75
2022/12/14 05:59:06;;;;;;;4.10;3.03;;;1.70;83.00;;;;;;4909579;28;20225;-75
2022/12/14 06:01:34;;;;;;;3.33;2.55;;;1.70;83.10;;;;;;4906748;29;20214;-73
2022/12/14 06:04:02;;;;;;;3.35;2.70;;;1.70;84.20;;;;;;4909628;29;20320;-74
2022/12/14 06:06:34;;;;;;;2.67;2.45;;;1.70;83.10;;;;;;4909425;29;20641;-74
2022/12/14 06:09:06;;;;;;;3.78;2.67;;;1.70;83.00;;;;;;4907879;29;20252;-74
2022/12/14 06:11:37;;;;;;;4.72;2.40;;;1.70;82.90;;;;;;4911608;29;20215;-74
2022/12/14 06:14:08;;;;;;;4.18;2.78;;;1.70;83.00;;;;;;4915528;29;20288;-74
2022/12/14 06:16:40;;;;;;;3.15;2.30;;;1.70;83.00;;;;;;4917448;29;20193;-74
2022/12/14 06:19:08;;;;;;;3.80;2.80;;;1.70;83.00;;;;;;4934116;29;20232;-73
2022/12/14 06:21:39;;;;;;;5.25;2.80;;;1.70;83.00;;;;;;4911076;29;20221;-75
2022/12/14 06:24:10;;;;;;;3.58;2.72;;;1.70;83.10;;;;;;4912328;29;20385;-73
2022/12/14 06:26:39;;;;;;;3.38;2.65;;;1.70;83.10;;;;;;4912476;29;20193;-73
2022/12/14 06:29:14;;;;;;;4.20;3.00;;;1.70;83.00;;;;;;4924825;28;20315;-72
2022/12/14 06:31:42;;;;;;;3.97;2.92;;;1.70;83.00;;;;;;4915594;29;20196;-74
2022/12/14 06:34:11;;;;;;;3.17;2.10;;;1.70;83.00;;;;;;4912373;29;20229;-75
2022/12/14 06:36:42;;;;;;;3.90;2.90;;;1.70;83.00;;;;;;4903369;29;20753;-72
2022/12/14 06:39:13;;;;;;;3.65;2.53;;;1.70;83.00;;;;;;4921666;28;20300;-74
2022/12/14 06:41:42;;;;;;;3.55;2.78;;;1.60;83.10;;;;;;4902134;29;20777;-75
2022/12/14 06:44:14;;;;;;;3.72;2.47;;;1.70;83.10;;;;;;4909619;29;20312;-74
2022/12/14 06:46:43;;;;;;;4.22;3.08;;;1.70;83.10;;;;;;4901130;29;20200;-73
2022/12/14 06:49:14;;;;;;;4.18;2.00;;;1.70;83.10;;;;;;4911185;29;20623;-74
2022/12/14 06:51:44;;;;;;;3.83;2.45;;;1.60;82.90;;;;;;4913670;29;20281;-74
2022/12/14 06:54:13;;;;;;;3.70;3.17;;;1.60;83.00;;;;;;4911010;29;20221;-75
2022/12/14 06:56:43;;;;;;;5.32;2.40;;;1.70;83.00;;;;;;4921749;29;20551;-74
2022/12/14 06:59:14;;;;;;;3.15;2.85;;;1.70;83.00;;;;;;4912595;29;20229;-73
2022/12/14 07:01:42;;;;;;;4.32;3.20;;;1.70;83.30;;;;;;4923228;29;20250;-73
2022/12/14 07:04:10;;;;;;;3.97;2.42;;;1.60;82.90;;;;;;4908200;28;20236;-73
2022/12/14 07:06:40;;;;;;;3.15;2.22;;;1.60;82.90;;;;;;4909052;29;20292;-74
2022/12/14 07:09:12;;;;;;;4.68;2.67;;;1.60;83.00;;;;;;4912566;29;20228;-74
2022/12/14 07:11:41;;;;;;;4.70;2.38;;;1.70;83.10;;;;;;4902881;29;20201;-73
2022/12/14 07:14:16;;;;;;;3.05;2.67;;;1.60;82.90;;;;;;4924550;28;20221;-75
2022/12/14 07:16:45;;;;;;;3.67;2.90;;;1.60;83.00;;;;;;4900034;29;20193;-75
2022/12/14 07:19:16;;;;;;;3.25;2.60;;;1.60;83.00;;;;;;4924415;28;20322;-75
2022/12/14 07:21:45;;;;;;;3.20;2.08;;;1.60;83.00;;;;;;4924260;29;20312;-74
2022/12/14 07:24:13;;;;;;;3.10;2.38;;;1.60;82.90;;;;;;4931447;29;20221;-74
2022/12/14 07:26:42;;;;;;;3.83;2.53;;;1.60;83.00;;;;;;4918145;29;20207;-74
2022/12/14 07:29:13;;;;;;;3.70;2.88;;;1.70;83.10;;;;;;4906970;29;20776;-71
2022/12/14 07:31:43;;;;;;;3.63;2.60;;;1.60;83.00;;;;;;4911148;29;20611;-71
2022/12/14 07:34:16;;;;;;;3.42;3.13;;;1.60;83.10;;;;;;4912148;28;20225;-73
2022/12/14 07:36:45;;;;;;;3.15;2.38;;;1.60;82.90;;;;;;4918850;29;20208;-76
2022/12/14 07:39:14;;;;;;;3.47;2.40;;;1.60;83.00;;;;;;4910334;29;20231;-74
2022/12/14 07:41:43;;;;;;;4.35;2.83;;;1.60;83.10;;;;;;4918310;29;20209;-74
2022/12/14 07:44:12;;;;;;;4.05;2.70;;;1.60;82.90;;;;;;4933495;28;20252;-74
2022/12/14 07:46:40;;;;;;;4.30;3.30;;;1.60;83.00;;;;;;4912486;29;20265;-73
2022/12/14 07:49:11;;;;;;;4.85;3.30;;;1.60;83.00;;;;;;4910043;29;20276;-74
2022/12/14 07:51:42;;;;;;;5.25;3.03;;;1.60;82.80;;;;;;4916793;29;20308;-73
2022/12/14 07:54:12;;;;;;;3.50;2.47;;;1.60;82.90;;;;;;4909752;29;20262;-73
2022/12/14 07:56:42;;;;;;;3.03;2.53;;;1.60;82.90;;;;;;4930254;29;20268;-74
2022/12/14 07:59:14;;;;;;;3.97;3.25;;;1.60;83.00;;;;;;4914095;29;20228;-73
2022/12/14 08:01:43;;;;;;;4.18;2.90;;;1.60;82.90;;;;;;4917550;29;20240;-75
2022/12/14 08:04:15;;;;;;;3.58;3.20;;;1.60;82.90;;;;;;4926351;28;20225;-73
2022/12/14 08:06:45;;;;;;;6.05;2.78;;;1.60;83.00;;;;;;4913768;29;20313;-72
2022/12/14 08:09:15;;;;;;;3.90;2.63;;;1.60;83.10;;;;;;4931176;28;20237;-75
2022/12/14 08:11:44;;;;;;;4.38;3.00;;;1.60;83.10;;;;;;4929480;29;20199;-74
2022/12/14 08:14:15;;;;;;;5.15;3.08;;;1.60;83.00;;;;;;4924624;29;20640;-74
2022/12/14 08:16:45;;;;;;;2.97;2.25;;;1.60;82.90;;;;;;4915495;29;20286;-75
2022/12/14 08:19:15;;;;;;;3.55;2.55;;;1.60;83.10;;;;;;4913100;29;20231;-74
2022/12/14 08:21:45;;;;;;;4.38;2.53;;;1.60;83.10;;;;;;4921064;29;20225;-74
2022/12/14 08:24:15;;;;;;;4.88;3.67;;;1.60;84.20;;;;;;4926803;29;20305;-74
2022/12/14 08:26:44;;;;;;;3.05;2.30;;;1.60;83.10;;;;;;4925508;29;20202;-74
2022/12/14 08:29:17;;;;;;;4.65;2.45;;;1.60;83.10;;;;;;4911314;29;20563;-74
2022/12/14 08:31:46;;;;;;;2.85;2.38;;;1.60;83.10;;;;;;4909821;29;20246;-74
2022/12/14 08:34:21;;;;;;;3.35;2.45;;;1.60;83.10;;;;;;4912912;29;20205;-75
2022/12/14 08:36:50;;;;;;;5.65;2.70;;;1.60;83.10;;;;;;4911312;29;20749;-75
2022/12/14 08:39:18;;;;;;;3.88;2.80;;;1.60;83.00;;;;;;4912552;29;20784;-74
2022/12/14 08:41:46;;;;;;;2.97;2.28;;;1.60;83.10;;;;;;4911499;29;20186;-75
2022/12/14 08:44:16;;;;;;;5.75;2.63;;;1.60;83.10;;;;;;4923101;29;20587;-74
2022/12/14 08:46:45;;;;;;;2.88;2.38;;;1.60;83.00;;;;;;4910603;29;20249;-75
2022/12/14 08:49:13;;;;;;;3.50;2.60;;;1.60;83.00;;;;;;4915843;29;20233;-67
2022/12/14 08:51:43;;;;;;;5.95;3.70;;;1.60;83.10;;;;;;4920425;29;20233;-66
2022/12/14 08:54:11;;;;;;;3.78;2.83;;;1.60;83.00;;;;;;4933845;29;20200;-69
2022/12/14 08:56:40;;;;;;;5.18;2.53;;;1.60;83.10;;;;;;4926545;29;20253;-68
2022/12/14 08:59:08;;;;;;;5.88;3.25;;;1.60;83.00;;;;;;4909837;29;20336;-68
2022/12/14 09:01:57;;;;;;;4.05;2.65;;;1.60;83.00;;;;;;4916318;29;20300;-68
2022/12/14 09:04:25;;;;;;;3.30;2.35;;;1.60;83.00;;;;;;4914400;29;20413;-68
2022/12/14 09:06:56;;;;;;;3.95;2.58;;;1.60;83.10;;;;;;4910981;29;20608;-68
2022/12/14 09:09:24;;;;;;;4.95;3.15;;;1.60;83.10;;;;;;4909906;29;20300;-69
2022/12/14 09:11:52;;;;;;;3.17;2.28;;;1.60;83.10;;;;;;4911365;29;20205;-68
2022/12/14 09:14:21;;;;;;;2.40;2.17;;;1.60;83.10;;;;;;4924640;29;20608;-68
2022/12/14 09:16:49;;;;;;;2.60;2.22;;;1.60;83.10;;;;;;4913134;29;20285;-67
2022/12/14 09:19:18;;;;;;;3.45;2.10;;;1.60;83.10;;;;;;4910803;29;20237;-67
2022/12/14 09:21:47;;;;;;;3.30;2.30;;;1.60;83.10;;;;;;4926166;29;20225;-68
2022/12/14 09:24:17;;;;;;;3.33;2.42;;;1.60;83.10;;;;;;4915099;29;20221;-67
2022/12/14 09:26:46;;;;;;;2.65;2.15;;;1.60;83.10;;;;;;4907920;29;20402;-68
2022/12/14 09:29:15;;;;;;;4.10;3.25;;;1.60;83.10;;;;;;4922419;28;20272;-69
2022/12/14 09:31:44;;;;;;;3.60;2.47;;;1.60;83.10;;;;;;4923696;29;20198;-67
2022/12/14 09:34:13;;;;;;;3.58;2.13;;;1.60;83.20;;;;;;4927826;28;20252;-69
2022/12/14 09:36:42;;;;;;;2.97;2.35;;;1.60;83.10;;;;;;4926651;29;20280;-67
2022/12/14 09:39:13;;;;;;;2.95;2.20;;;1.60;83.10;;;;;;4907239;29;20229;-67
2022/12/14 09:42:02;;;;;;;5.43;2.90;;;1.60;83.10;;;;;;4905119;29;20256;-67
2022/12/14 09:44:46;;;;;;;3.97;2.85;;;1.60;83.10;;;;;;4910516;29;20269;-69
2022/12/14 09:47:19;;;;;;;3.35;2.88;;;1.60;83.10;;;;;;4909451;29;20198;-68
2022/12/14 09:49:51;;;;;;;5.32;2.75;;;1.60;83.10;;;;;;4914067;29;20627;-66
2022/12/14 09:52:22;;;;;;;5.97;2.88;;;1.60;83.20;;;;;;4918251;29;20190;-69
2022/12/14 09:54:51;;;;;;;3.85;2.63;;;1.60;83.10;;;;;;4909090;29;20231;-67
2022/12/14 09:57:29;;;;;;;4.65;2.42;;;1.60;83.10;;;;;;4930132;29;20313;-68
2022/12/14 09:59:57;;;;;;;3.97;2.72;;;1.60;83.20;;;;;;4908673;29;20711;-68
2022/12/14 10:02:40;;;;;;;3.13;2.40;;;1.60;83.10;;;;;;4924596;29;20236;-68
2022/12/14 10:05:27;;;;;;;4.68;2.55;;;1.60;83.00;;;;;;4910144;28;20244;-68
2022/12/14 10:08:06;;;;;;;3.08;2.47;;;1.60;83.10;;;;;;4921767;29;20220;-68
2022/12/14 10:10:41;;;;;;;4.45;3.22;;;1.60;83.10;;;;;;4914344;29;20291;-68
2022/12/14 10:13:22;;;;;;;4.53;2.97;;;1.60;82.90;;;;;;4906765;29;20813;-68
2022/12/14 10:16:01;;;;;;;4.85;3.47;;;1.60;82.70;;;;;;4921144;29;20666;-67
2022/12/14 10:19:06;;;;;;;3.40;3.10;;;1.60;82.80;;;;;;4910339;29;20647;-67
2022/12/14 10:21:45;;;;;;;5.47;2.97;;;1.60;82.90;;;;;;4908012;29;20223;-68
2022/12/14 10:24:17;;;;;;;3.40;2.40;;;1.60;82.80;;;;;;4907019;29;20323;-68
2022/12/14 10:26:50;;;;;;;2.67;2.47;;;1.60;83.00;;;;;;4908770;29;20556;-67
2022/12/14 10:29:27;;;;;;;4.60;2.60;;;1.60;82.90;;;;;;4917800;28;20473;-68
2022/12/14 10:32:03;;;;;;;3.15;2.70;;;1.60;83.00;;;;;;4912147;29;20481;-69
2022/12/14 10:34:33;;;;;;;4.75;3.33;;;1.60;83.00;;;;;;4923401;28;20221;-69
2022/12/14 10:37:21;;;;;;;4.40;3.22;;;1.60;83.00;;;;;;4917471;29;20225;-68
2022/12/14 10:39:58;;;;;;;4.03;2.85;;;1.60;83.00;;;;;;4906009;29;20288;-68
2022/12/14 10:42:33;;;;;;;5.40;3.58;;;1.60;82.90;;;;;;4925605;29;20625;-67
2022/12/14 10:45:19;;;;;;;4.10;3.20;;;1.60;83.00;;;;;;4916352;29;20271;-68
2022/12/14 10:48:38;;;;;;;3.53;2.40;;;1.60;83.10;;;;;;4923744;29;20217;-67
2022/12/14 10:51:10;;;;;;;3.80;2.95;;;1.60;83.00;;;;;;4905252;29;20219;-68
2022/12/14 10:53:44;;;;;;;3.03;2.35;;;1.60;84.30;;;;;;4909836;29;20193;-69
2022/12/14 10:56:19;;;;;;;3.55;3.13;;;1.60;83.10;;;;;;4919615;29;20689;-69
2022/12/14 10:59:15;;;;;;;6.00;3.60;;;1.60;83.10;;;;;;4897987;29;21031;-67
2022/12/14 11:01:46;;;;;;;3.70;3.20;;;1.60;83.30;;;;;;4910341;29;20204;-68
2022/12/14 11:04:23;;;;;;;5.28;4.47;;;1.60;83.20;;;;;;4912808;28;20276;-67
2022/12/14 11:06:51;;;;;;;4.55;2.50;;;1.60;83.30;;;;;;4909201;29;20276;-70
2022/12/14 11:09:21;;;;;;;3.47;2.55;;;1.60;83.30;;;;;;4923400;28;20220;-69
2022/12/14 11:11:57;;;;;;;3.35;2.90;;;1.60;83.10;;;;;;4911649;29;20201;-69
2022/12/14 11:14:26;;;;;;;3.20;2.58;;;1.60;83.10;;;;;;4932743;28;20235;-69
2022/12/14 11:16:56;;;;;;;3.75;2.85;;;1.60;83.10;;;;;;4916891;29;20752;-67
2022/12/14 11:19:26;;;;;;;3.83;2.70;;;1.60;83.10;;;;;;4927552;29;20229;-70
2022/12/14 11:22:13;;;;;;;4.00;2.83;;;1.60;83.10;;;;;;4922795;29;20204;-70
2022/12/14 11:24:50;;;;;;;3.55;2.70;;;1.60;83.20;;;;;;4903576;29;20221;-73
2022/12/14 11:27:20;;;;;;;4.57;3.05;;;1.60;83.10;;;;;;4906484;29;20801;-74
2022/12/14 11:29:51;;;;;;;3.75;2.65;;;1.60;83.20;;;;;;4924542;29;20228;-75
2022/12/14 11:32:24;;;;;;;3.15;2.28;;;1.60;83.20;;;;;;4909293;29;20570;-75
2022/12/14 11:34:56;;;;;;;5.40;2.92;;;1.60;83.20;;;;;;4910401;29;20248;-72
2022/12/14 11:37:26;;;;;;;3.55;2.50;;;1.60;83.10;;;;;;4916595;29;20225;-74
2022/12/14 11:39:57;;;;;;;4.13;2.92;;;1.60;83.20;;;;;;4909885;29;20556;-74
2022/12/14 11:42:26;;;;;;;5.07;2.85;;;1.60;83.10;;;;;;4928868;29;20208;-73
2022/12/14 11:44:55;;;;;;;3.30;2.05;;;1.60;83.20;;;;;;4908100;29;20247;-73
2022/12/14 11:47:26;;;;;;;4.15;2.50;;;1.60;83.20;;;;;;4914332;29;20231;-73
2022/12/14 11:49:56;;;;;;;4.57;3.28;;;1.60;83.20;;;;;;4908813;28;20252;-73
2022/12/14 11:52:26;;;;;;;3.63;2.85;;;1.60;83.10;;;;;;4917530;29;20625;-72
2022/12/14 11:55:11;;;;;;;3.65;2.47;;;1.60;83.20;;;;;;4912241;29;20225;-74
2022/12/14 11:57:49;;;;;;;4.95;2.85;;;1.60;83.30;;;;;;4904474;29;20217;-73
2022/12/14 12:00:28;;;;;;;3.15;2.40;;;1.60;84.40;;;;;;4907232;29;20239;-75
2022/12/14 12:03:02;;;;;;;3.25;2.28;;;1.60;83.20;;;;;;4913210;29;20259;-75
2022/12/14 12:05:32;;;;;;;6.43;3.13;;;1.60;83.20;;;;;;4923272;29;20232;-73
2022/12/14 12:08:02;;;;;;;3.95;2.30;;;1.60;83.30;;;;;;4911367;29;20217;-74
2022/12/14 12:10:39;;;;;;;3.55;2.65;;;1.60;83.30;;;;;;4923935;29;20229;-73
2022/12/14 12:13:18;;;;;;;4.00;2.10;;;1.60;83.20;;;;;;4916314;29;20935;-73
2022/12/14 12:15:50;;;;;;;2.75;2.40;;;1.60;83.30;;;;;;4928671;29;20189;-73
2022/12/14 12:18:25;;;;;;;3.50;2.42;;;1.60;83.40;;;;;;4914044;29;20225;-73
2022/12/14 12:20:59;;;;;;;4.68;2.90;;;1.60;83.30;;;;;;4908326;29;20665;-73
2022/12/14 12:23:33;;;;;;;3.83;2.63;;;1.60;83.30;;;;;;4910098;29;20236;-74
2022/12/14 12:26:11;;;;;;;4.22;3.10;;;1.60;83.30;;;;;;4919711;29;20201;-74
2022/12/14 12:28:45;;;;;;;6.32;2.40;;;1.60;83.30;;;;;;4905280;29;20257;-74
2022/12/14 12:31:22;;;;;;;3.55;2.55;;;1.60;83.30;;;;;;4912277;29;20208;-74
2022/12/14 12:33:58;;;;;;;3.83;2.47;;;1.60;83.30;;;;;;4918645;29;20217;-72
2022/12/14 12:36:27;;;;;;;2.38;2.15;;;1.60;83.40;;;;;;4936706;29;20197;-74
2022/12/14 12:39:04;;;;;;;2.88;2.55;;;1.60;83.40;;;;;;4920819;28;20241;-74
2022/12/14 12:41:44;;;;;;;3.13;2.30;;;1.60;83.30;;;;;;4913643;29;20201;-73
2022/12/14 12:44:23;;;;;;;4.85;2.35;;;1.60;83.40;;;;;;4915820;29;20209;-74
2022/12/14 12:47:00;;;;;;;6.60;4.25;;;1.60;83.50;;;;;;4912910;29;20205;-75
2022/12/14 12:49:52;;;;;;;4.97;3.97;;;1.60;83.10;;;;;;4921505;29;21294;-74
2022/12/14 12:52:25;;;;;;;5.20;3.67;;;1.60;82.90;;;;;;4911576;29;20685;-73
2022/12/14 12:55:01;;;;;;;8.10;4.43;;;1.60;83.00;;;;;;4906690;29;20221;-75
2022/12/14 12:57:42;;;;;;;4.75;3.67;;;1.60;83.10;;;;;;4909429;29;20212;-73
2022/12/14 13:00:16;;;;;;;7.68;3.65;;;1.60;83.10;;;;;;4922154;29;20256;-74
2022/12/14 13:02:48;;;;;;;5.35;3.33;;;1.60;83.30;;;;;;4922394;29;20274;-74
2022/12/14 13:05:21;;;;;;;14.45;4.30;;;1.60;83.80;;;;;;4909202;29;20221;-75
2022/12/14 13:08:18;;;;;;;5.80;3.30;;;1.60;83.50;;;;;;4924084;29;20689;-73
2022/12/14 13:10:47;;;;;;;7.50;3.65;;;1.60;83.40;;;;;;4927978;29;20207;-74
2022/12/14 13:13:42;;;;;;;4.60;3.47;;;1.70;83.60;;;;;;4919774;29;20208;-72
2022/12/14 13:16:16;;;;;;;6.57;3.10;;;1.60;83.40;;;;;;4924936;29;20196;-74
2022/12/14 13:18:55;;;;;;;4.90;3.22;;;1.60;83.50;;;;;;4917637;29;20224;-73
2022/12/14 13:21:48;;;;;;;5.28;3.67;;;1.60;83.40;;;;;;4914826;29;20372;-67
2022/12/14 13:24:19;;;;;;;8.05;5.75;;;1.60;83.60;;;;;;4909464;29;20235;-70
2022/12/14 13:27:16;;;;;;;15.90;6.40;;;1.60;83.10;;;;;;4908312;29;20621;-66
2022/12/14 13:30:03;;;;;;;21.17;9.23;;;1.60;84.00;;;;;;4917314;29;20221;-68
2022/12/14 13:32:50;;;;;;;11.70;5.90;;;1.70;83.20;;;;;;4922491;29;20303;-68
2022/12/14 13:35:36;;;;;;;10.23;5.95;;;1.70;83.10;;;;;;4913945;29;20662;-68
2022/12/14 13:38:29;;;;;;;15.27;6.85;;;1.70;83.10;;;;;;4903356;29;20229;-68
2022/12/14 13:41:28;;;;;;;12.48;6.10;;;1.70;83.10;;;;;;4922924;29;20199;-68
2022/12/14 13:44:14;;;;;;;8.90;5.18;;;1.70;83.20;;;;;;4916787;29;20610;-68
2022/12/14 13:46:42;;;;;;;8.77;5.20;;;1.60;83.30;;;;;;4911338;29;20200;-68